Current Weather

Middle Wallop

Middle Wallop, United Kingdom (EGVP)

Report from: Saturday, June 22, 2024 9:50 AM BST
Current time: Saturday, June 22, 2024 10:15 AM BST

Nearby weather – Weather history – Daily summaries
Weather forecast

Temperature17.0°C (62.6°F)
Dew point10.0°C (50.0°F)
Winds 7 kts (3.6 m/s, 8.1 mph) Northwest (320°)
Visibility6.2 mi. (10 km)
Clouds Ceiling: Broken clouds 2,000 ft. (610 m)
Broken clouds 4,700 ft. (1,433 m)
Altimeter29.88 in.Hg (1012 mB)
Relative humidity63 %
Density altitude452 ft. (138 m)
Remarks Fully automated report
Flight conditions Marginal Visual Meteorological Conditions
Raw dataEGVP 220850Z AUTO 32007KT 9999 BKN020/// BKN047/// 17/10 Q1012
An error has occurred. This application may no longer respond until reloaded. Reload 🗙